CFG7Z LIPZ-EDDH
Flight info
| Callsign | CFG7Z |
|---|---|
| Flight time | 1h 29m |
| Altitude | 38000 |
| Route | ROKIB8X/04R ROKIB DCT EKPEB DCT BRENO DCT KONIN DCT EXITI DCT ABGUS DCT DIRBO/N0363F230 T902 RARUP RARUP6A |
| Aircraft | A20N/M-SDE2E3FGHIRWXY/LB1 |
Departure
| Time | 2026-05-06 15:33 |
|---|---|
| Airport | Venice Marco Polo Airport (LIPZ) |
Arrival
| Time | 2026-05-06 17:03 |
|---|---|
| Airport | Hamburg Helmut Schmidt Airport (EDDH) |
| Time | Latitude | Longitude | Altitude | Speed | Heading |
|---|---|---|---|---|---|
| 2026-05-06 15:07 | 45.50723 | 12.34447 | 12 ft | 0 kts | 222° |
| 2026-05-06 15:21 | 45.50724 | 12.34449 | 12 ft | 1 kts | 222° |
| 2026-05-06 15:21 | 45.50735 | 12.34463 | 12 ft | 2 kts | 222° |
| 2026-05-06 15:21 | 45.50747 | 12.34477 | 12 ft | 2 kts | 222° |
| 2026-05-06 15:22 | 45.50758 | 12.34491 | 12 ft | 2 kts | 222° |
| 2026-05-06 15:22 | 45.50764 | 12.34501 | 12 ft | 2 kts | 219° |
| 2026-05-06 15:22 | 45.50779 | 12.34508 | 11 ft | 2 kts | 172° |
| 2026-05-06 15:22 | 45.50790 | 12.34502 | 12 ft | 0 kts | 135° |
| 2026-05-06 15:23 | 45.50795 | 12.34492 | 11 ft | 1 kts | 129° |
| 2026-05-06 15:23 | 45.50797 | 12.34489 | 11 ft | 0 kts | 131° |
| 2026-05-06 15:25 | 45.50782 | 12.34512 | 11 ft | 5 kts | 132° |
| 2026-05-06 15:26 | 45.50751 | 12.34559 | 12 ft | 6 kts | 133° |
| 2026-05-06 15:26 | 45.50715 | 12.34615 | 12 ft | 8 kts | 133° |
| 2026-05-06 15:26 | 45.50670 | 12.34682 | 12 ft | 9 kts | 133° |
| 2026-05-06 15:26 | 45.50614 | 12.34737 | 12 ft | 10 kts | 180° |
| 2026-05-06 15:27 | 45.50553 | 12.34690 | 12 ft | 10 kts | 221° |
| 2026-05-06 15:27 | 45.50496 | 12.34616 | 12 ft | 11 kts | 221° |
| 2026-05-06 15:27 | 45.50434 | 12.34537 | 12 ft | 11 kts | 221° |
| 2026-05-06 15:27 | 45.50384 | 12.34473 | 13 ft | 8 kts | 222° |
| 2026-05-06 15:28 | 45.50376 | 12.34462 | 13 ft | 0 kts | 222° |
| 2026-05-06 15:29 | 45.50375 | 12.34461 | 13 ft | 1 kts | 222° |
| 2026-05-06 15:29 | 45.50333 | 12.34407 | 13 ft | 12 kts | 221° |
| 2026-05-06 15:29 | 45.50265 | 12.34320 | 13 ft | 13 kts | 222° |
| 2026-05-06 15:29 | 45.50195 | 12.34231 | 13 ft | 13 kts | 221° |
| 2026-05-06 15:30 | 45.50121 | 12.34138 | 13 ft | 14 kts | 221° |
| 2026-05-06 15:30 | 45.50073 | 12.34081 | 13 ft | 5 kts | 211° |
| 2026-05-06 15:30 | 45.50046 | 12.34095 | 13 ft | 5 kts | 118° |
| 2026-05-06 15:30 | 45.50042 | 12.34151 | 13 ft | 6 kts | 91° |
| 2026-05-06 15:31 | 45.50045 | 12.34217 | 13 ft | 6 kts | 85° |
| 2026-05-06 15:31 | 45.50047 | 12.34255 | 13 ft | 0 kts | 85° |
| 2026-05-06 15:32 | 45.50048 | 12.34280 | 13 ft | 5 kts | 85° |
| 2026-05-06 15:32 | 45.50051 | 12.34369 | 13 ft | 12 kts | 89° |
| 2026-05-06 15:32 | 45.50044 | 12.34515 | 13 ft | 14 kts | 102° |
| 2026-05-06 15:32 | 45.50102 | 12.34661 | 13 ft | 37 kts | 44° |
| 2026-05-06 15:33 | 45.50379 | 12.35015 | 12 ft | 82 kts | 42° |
| 2026-05-06 15:33 | 45.50987 | 12.35795 | 13 ft | 151 kts | 42° |
| 2026-05-06 15:33 | 45.51849 | 12.36844 | 477 ft | 167 kts | 43° |
| 2026-05-06 15:33 | 45.52668 | 12.37975 | 1194 ft | 166 kts | 49° |
| 2026-05-06 15:34 | 45.53450 | 12.39166 | 1877 ft | 167 kts | 51° |
| 2026-05-06 15:34 | 45.53893 | 12.40629 | 2491 ft | 164 kts | 96° |
| 2026-05-06 15:34 | 45.53677 | 12.42197 | 3134 ft | 163 kts | 105° |
| 2026-05-06 15:34 | 45.53419 | 12.43815 | 3625 ft | 176 kts | 104° |
| 2026-05-06 15:35 | 45.53174 | 12.45644 | 3927 ft | 202 kts | 103° |
| 2026-05-06 15:35 | 45.52932 | 12.47709 | 3979 ft | 216 kts | 101° |
| 2026-05-06 15:35 | 45.52705 | 12.49844 | 3983 ft | 219 kts | 101° |
| 2026-05-06 15:35 | 45.52198 | 12.51867 | 4136 ft | 222 kts | 131° |
| 2026-05-06 15:36 | 45.50933 | 12.53106 | 4707 ft | 225 kts | 166° |
| 2026-05-06 15:36 | 45.49388 | 12.53128 | 5048 ft | 234 kts | 201° |
| 2026-05-06 15:36 | 45.48051 | 12.51726 | 5595 ft | 252 kts | 236° |
| 2026-05-06 15:36 | 45.47556 | 12.49318 | 6397 ft | 265 kts | 270° |
| 2026-05-06 15:37 | 45.47905 | 12.46758 | 7431 ft | 268 kts | 280° |
| 2026-05-06 15:37 | 45.48353 | 12.44193 | 8318 ft | 272 kts | 280° |
| 2026-05-06 15:37 | 45.48805 | 12.41569 | 8621 ft | 273 kts | 280° |
| 2026-05-06 15:37 | 45.49245 | 12.38969 | 8865 ft | 272 kts | 279° |
| 2026-05-06 15:38 | 45.49685 | 12.36338 | 9113 ft | 273 kts | 279° |
| 2026-05-06 15:38 | 45.50117 | 12.33728 | 9355 ft | 274 kts | 279° |
| 2026-05-06 15:38 | 45.50558 | 12.31054 | 9601 ft | 275 kts | 279° |
| 2026-05-06 15:38 | 45.50994 | 12.28402 | 9922 ft | 280 kts | 279° |
| 2026-05-06 15:39 | 45.51439 | 12.25680 | 10577 ft | 291 kts | 279° |
| 2026-05-06 15:39 | 45.51906 | 12.22821 | 11279 ft | 300 kts | 279° |
| 2026-05-06 15:39 | 45.52416 | 12.19950 | 12085 ft | 306 kts | 281° |
| 2026-05-06 15:39 | 45.53046 | 12.17011 | 12916 ft | 310 kts | 282° |
| 2026-05-06 15:40 | 45.53685 | 12.14089 | 13701 ft | 314 kts | 282° |
| 2026-05-06 15:40 | 45.54338 | 12.11103 | 14472 ft | 318 kts | 282° |
| 2026-05-06 15:40 | 45.54997 | 12.08086 | 15260 ft | 322 kts | 282° |
| 2026-05-06 15:40 | 45.55653 | 12.05064 | 16021 ft | 325 kts | 282° |
| 2026-05-06 15:41 | 45.56322 | 12.01986 | 16781 ft | 327 kts | 281° |
| 2026-05-06 15:41 | 45.56995 | 11.98887 | 17527 ft | 329 kts | 281° |
| 2026-05-06 15:41 | 45.57789 | 11.95809 | 18227 ft | 339 kts | 292° |
| 2026-05-06 15:41 | 45.59268 | 11.93145 | 18874 ft | 356 kts | 313° |
| 2026-05-06 15:42 | 45.61401 | 11.91237 | 19557 ft | 369 kts | 328° |
| 2026-05-06 15:42 | 45.63726 | 11.89677 | 20248 ft | 373 kts | 329° |
| 2026-05-06 15:42 | 45.66067 | 11.88131 | 20874 ft | 377 kts | 329° |
| 2026-05-06 15:42 | 45.68440 | 11.86542 | 21533 ft | 380 kts | 328° |
| 2026-05-06 15:43 | 45.70826 | 11.84918 | 22155 ft | 384 kts | 328° |
| 2026-05-06 15:43 | 45.73270 | 11.83244 | 22804 ft | 387 kts | 328° |
| 2026-05-06 15:43 | 45.75674 | 11.81587 | 23416 ft | 390 kts | 328° |
| 2026-05-06 15:43 | 45.78130 | 11.79891 | 24029 ft | 393 kts | 327° |
| 2026-05-06 15:44 | 45.80600 | 11.78182 | 24618 ft | 397 kts | 327° |
| 2026-05-06 15:44 | 45.83071 | 11.76470 | 25156 ft | 401 kts | 327° |
| 2026-05-06 15:44 | 45.85611 | 11.74707 | 25689 ft | 405 kts | 327° |
| 2026-05-06 15:44 | 45.88163 | 11.72940 | 26235 ft | 408 kts | 326° |
| 2026-05-06 15:45 | 45.90727 | 11.71183 | 26772 ft | 412 kts | 328° |
| 2026-05-06 15:45 | 45.93403 | 11.69637 | 27278 ft | 420 kts | 333° |
| 2026-05-06 15:45 | 45.96223 | 11.68425 | 27717 ft | 430 kts | 339° |
| 2026-05-06 15:45 | 45.99159 | 11.67501 | 28166 ft | 435 kts | 341° |
| 2026-05-06 15:46 | 46.02157 | 11.66650 | 28651 ft | 438 kts | 342° |
| 2026-05-06 15:46 | 46.05179 | 11.65800 | 28959 ft | 442 kts | 342° |
| 2026-05-06 15:46 | 46.08165 | 11.64959 | 29229 ft | 444 kts | 341° |
| 2026-05-06 15:46 | 46.11219 | 11.64089 | 29600 ft | 447 kts | 341° |
| 2026-05-06 15:47 | 46.14298 | 11.63204 | 29976 ft | 449 kts | 341° |
| 2026-05-06 15:47 | 46.17388 | 11.62313 | 30373 ft | 451 kts | 341° |
| 2026-05-06 15:47 | 46.20480 | 11.61415 | 30732 ft | 453 kts | 341° |
| 2026-05-06 15:47 | 46.23564 | 11.60516 | 31068 ft | 455 kts | 341° |
| 2026-05-06 15:48 | 46.26679 | 11.59610 | 31370 ft | 458 kts | 341° |
| 2026-05-06 15:48 | 46.29823 | 11.58693 | 31680 ft | 460 kts | 341° |
| 2026-05-06 15:48 | 46.32957 | 11.57779 | 31998 ft | 462 kts | 341° |
| 2026-05-06 15:48 | 46.36125 | 11.56852 | 32367 ft | 462 kts | 341° |
| 2026-05-06 15:49 | 46.39271 | 11.55934 | 32770 ft | 462 kts | 341° |
| 2026-05-06 15:49 | 46.42439 | 11.55010 | 33199 ft | 460 kts | 341° |
| 2026-05-06 15:49 | 46.45578 | 11.54092 | 33598 ft | 459 kts | 341° |
| 2026-05-06 15:49 | 46.48680 | 11.53182 | 33973 ft | 458 kts | 341° |
| 2026-05-06 15:50 | 46.51826 | 11.52259 | 34317 ft | 458 kts | 341° |
| 2026-05-06 15:50 | 46.54930 | 11.51343 | 34637 ft | 458 kts | 341° |
| 2026-05-06 15:50 | 46.58033 | 11.50428 | 34866 ft | 458 kts | 341° |
| 2026-05-06 15:50 | 46.61169 | 11.49501 | 35148 ft | 457 kts | 341° |
| 2026-05-06 15:51 | 46.64268 | 11.48586 | 35434 ft | 455 kts | 342° |
| 2026-05-06 15:51 | 46.67348 | 11.47675 | 35715 ft | 453 kts | 342° |
| 2026-05-06 15:51 | 46.70422 | 11.46750 | 35997 ft | 451 kts | 341° |
| 2026-05-06 15:51 | 46.73499 | 11.45754 | 36221 ft | 449 kts | 341° |
| 2026-05-06 15:52 | 46.76545 | 11.44741 | 36406 ft | 450 kts | 341° |
| 2026-05-06 15:52 | 46.79572 | 11.43736 | 36604 ft | 451 kts | 341° |
| 2026-05-06 15:52 | 46.82641 | 11.42717 | 36811 ft | 452 kts | 341° |
| 2026-05-06 15:52 | 46.85722 | 11.41700 | 37008 ft | 452 kts | 342° |
| 2026-05-06 15:53 | 46.88756 | 11.40702 | 37219 ft | 452 kts | 342° |
| 2026-05-06 15:53 | 46.91845 | 11.39685 | 37419 ft | 453 kts | 342° |
| 2026-05-06 15:53 | 46.94894 | 11.38752 | 37597 ft | 455 kts | 345° |
| 2026-05-06 15:53 | 46.98036 | 11.38055 | 37768 ft | 458 kts | 349° |
| 2026-05-06 15:54 | 47.01242 | 11.37645 | 37911 ft | 462 kts | 353° |
| 2026-05-06 15:54 | 47.04457 | 11.37508 | 37920 ft | 464 kts | 355° |
| 2026-05-06 15:54 | 47.10946 | 11.37467 | 37925 ft | 463 kts | 355° |
| 2026-05-06 15:55 | 47.17347 | 11.37438 | 37906 ft | 462 kts | 355° |
| 2026-05-06 15:55 | 47.23820 | 11.37388 | 37878 ft | 463 kts | 355° |
| 2026-05-06 15:56 | 47.30271 | 11.37329 | 37868 ft | 462 kts | 356° |
| 2026-05-06 15:56 | 47.36659 | 11.37268 | 37869 ft | 463 kts | 355° |
| 2026-05-06 15:57 | 47.43108 | 11.37204 | 37870 ft | 462 kts | 356° |
| 2026-05-06 15:57 | 47.49516 | 11.37143 | 37864 ft | 462 kts | 356° |
| 2026-05-06 15:58 | 47.55911 | 11.37081 | 37863 ft | 461 kts | 356° |
| 2026-05-06 15:58 | 47.62308 | 11.37018 | 37859 ft | 461 kts | 356° |
| 2026-05-06 15:59 | 47.68709 | 11.36957 | 37842 ft | 460 kts | 356° |
| 2026-05-06 15:59 | 47.75069 | 11.36893 | 37836 ft | 461 kts | 356° |
| 2026-05-06 16:00 | 47.81490 | 11.36832 | 37829 ft | 461 kts | 356° |
| 2026-05-06 16:00 | 47.87862 | 11.36804 | 37816 ft | 461 kts | 357° |
| 2026-05-06 16:01 | 47.94272 | 11.36952 | 37804 ft | 460 kts | 357° |
| 2026-05-06 16:01 | 48.00632 | 11.37111 | 37803 ft | 460 kts | 357° |
| 2026-05-06 16:02 | 48.07029 | 11.37259 | 37794 ft | 461 kts | 358° |
| 2026-05-06 16:02 | 48.13459 | 11.37406 | 37797 ft | 461 kts | 357° |
| 2026-05-06 16:03 | 48.19845 | 11.37551 | 37800 ft | 461 kts | 357° |
| 2026-05-06 16:03 | 48.26228 | 11.37693 | 37789 ft | 462 kts | 358° |
| 2026-05-06 16:04 | 48.32651 | 11.37839 | 37787 ft | 462 kts | 358° |
| 2026-05-06 16:04 | 48.39024 | 11.37984 | 37791 ft | 461 kts | 358° |
| 2026-05-06 16:05 | 48.45430 | 11.38128 | 37783 ft | 461 kts | 358° |
| 2026-05-06 16:05 | 48.51851 | 11.38275 | 37793 ft | 462 kts | 358° |
| 2026-05-06 16:06 | 48.58267 | 11.38422 | 37783 ft | 462 kts | 358° |
| 2026-05-06 16:06 | 48.64666 | 11.38570 | 37791 ft | 462 kts | 358° |
| 2026-05-06 16:07 | 48.71085 | 11.38718 | 37784 ft | 462 kts | 358° |
| 2026-05-06 16:07 | 48.77506 | 11.38864 | 37781 ft | 463 kts | 358° |
| 2026-05-06 16:08 | 48.83911 | 11.39009 | 37783 ft | 463 kts | 358° |
| 2026-05-06 16:08 | 48.90338 | 11.39159 | 37776 ft | 464 kts | 358° |
| 2026-05-06 16:09 | 48.96773 | 11.39308 | 37768 ft | 464 kts | 358° |
| 2026-05-06 16:09 | 49.03239 | 11.39460 | 37776 ft | 463 kts | 358° |
| 2026-05-06 16:10 | 49.09676 | 11.39611 | 37760 ft | 463 kts | 358° |
| 2026-05-06 16:10 | 49.16060 | 11.39762 | 37760 ft | 463 kts | 358° |
| 2026-05-06 16:11 | 49.22503 | 11.39911 | 37753 ft | 463 kts | 358° |
| 2026-05-06 16:11 | 49.28962 | 11.40063 | 37751 ft | 463 kts | 358° |
| 2026-05-06 16:12 | 49.35398 | 11.40216 | 37761 ft | 463 kts | 358° |
| 2026-05-06 16:12 | 49.41830 | 11.40370 | 37754 ft | 463 kts | 358° |
| 2026-05-06 16:13 | 49.48277 | 11.40523 | 37765 ft | 464 kts | 358° |
| 2026-05-06 16:13 | 49.54700 | 11.40651 | 37769 ft | 462 kts | 356° |
| 2026-05-06 16:14 | 49.61065 | 11.40061 | 37760 ft | 459 kts | 352° |
| 2026-05-06 16:14 | 49.67415 | 11.39107 | 37764 ft | 460 kts | 351° |
| 2026-05-06 16:15 | 49.73769 | 11.38150 | 37764 ft | 460 kts | 351° |
| 2026-05-06 16:15 | 49.80121 | 11.37205 | 37759 ft | 460 kts | 351° |
| 2026-05-06 16:16 | 49.86501 | 11.36260 | 37763 ft | 460 kts | 352° |
| 2026-05-06 16:16 | 49.92828 | 11.35322 | 37765 ft | 459 kts | 352° |
| 2026-05-06 16:17 | 49.99187 | 11.34379 | 37758 ft | 459 kts | 351° |
| 2026-05-06 16:17 | 50.05523 | 11.33436 | 37763 ft | 459 kts | 351° |
| 2026-05-06 16:18 | 50.11859 | 11.32487 | 37758 ft | 459 kts | 351° |
| 2026-05-06 16:18 | 50.18221 | 11.31533 | 37763 ft | 459 kts | 351° |
| 2026-05-06 16:19 | 50.24557 | 11.30581 | 37760 ft | 459 kts | 351° |
| 2026-05-06 16:19 | 50.30898 | 11.29627 | 37770 ft | 459 kts | 351° |
| 2026-05-06 16:20 | 50.37237 | 11.28670 | 37754 ft | 458 kts | 351° |
| 2026-05-06 16:20 | 50.43586 | 11.27713 | 37759 ft | 458 kts | 351° |
| 2026-05-06 16:21 | 50.46723 | 11.27238 | 37870 ft | 458 kts | 351° |
| 2026-05-06 16:21 | 50.49917 | 11.26751 | 37806 ft | 457 kts | 351° |
| 2026-05-06 16:21 | 50.56198 | 11.25796 | 37771 ft | 457 kts | 351° |
| 2026-05-06 16:22 | 50.62582 | 11.24822 | 37750 ft | 457 kts | 351° |
| 2026-05-06 16:22 | 50.68901 | 11.23853 | 37755 ft | 457 kts | 351° |
| 2026-05-06 16:23 | 50.75289 | 11.22873 | 37751 ft | 457 kts | 351° |
| 2026-05-06 16:23 | 50.81643 | 11.21895 | 37744 ft | 457 kts | 351° |
| 2026-05-06 16:24 | 50.87940 | 11.20924 | 37744 ft | 457 kts | 351° |
| 2026-05-06 16:24 | 50.94287 | 11.19943 | 37736 ft | 457 kts | 351° |
| 2026-05-06 16:25 | 51.00560 | 11.18969 | 37737 ft | 457 kts | 351° |
| 2026-05-06 16:25 | 51.06861 | 11.17990 | 37743 ft | 456 kts | 351° |
| 2026-05-06 16:26 | 51.13188 | 11.17004 | 37741 ft | 456 kts | 351° |
| 2026-05-06 16:26 | 51.19523 | 11.16016 | 37751 ft | 455 kts | 351° |
| 2026-05-06 16:27 | 51.25856 | 11.15021 | 37754 ft | 455 kts | 351° |
| 2026-05-06 16:27 | 51.32188 | 11.14025 | 37757 ft | 456 kts | 351° |
| 2026-05-06 16:28 | 51.38530 | 11.13026 | 37765 ft | 456 kts | 351° |
| 2026-05-06 16:28 | 51.44803 | 11.12034 | 37757 ft | 456 kts | 351° |
| 2026-05-06 16:29 | 51.51113 | 11.11033 | 37759 ft | 456 kts | 351° |
| 2026-05-06 16:29 | 51.57397 | 11.10034 | 37766 ft | 455 kts | 351° |
| 2026-05-06 16:30 | 51.62661 | 11.09196 | 37763 ft | 454 kts | 351° |
| 2026-05-06 16:30 | 51.69981 | 11.08028 | 37770 ft | 455 kts | 351° |
| 2026-05-06 16:31 | 51.76266 | 11.07020 | 37771 ft | 455 kts | 351° |
| 2026-05-06 16:31 | 51.82523 | 11.06015 | 37784 ft | 455 kts | 351° |
| 2026-05-06 16:32 | 51.85661 | 11.05509 | 37658 ft | 455 kts | 351° |
| 2026-05-06 16:32 | 51.88798 | 11.04956 | 37431 ft | 453 kts | 349° |
| 2026-05-06 16:32 | 51.91905 | 11.04304 | 37208 ft | 450 kts | 349° |
| 2026-05-06 16:32 | 51.95026 | 11.03621 | 36987 ft | 447 kts | 349° |
| 2026-05-06 16:33 | 51.98063 | 11.02955 | 36764 ft | 445 kts | 349° |
| 2026-05-06 16:33 | 52.01140 | 11.02284 | 36533 ft | 443 kts | 349° |
| 2026-05-06 16:33 | 52.04208 | 11.01621 | 36245 ft | 443 kts | 349° |
| 2026-05-06 16:34 | 52.10173 | 11.00335 | 35365 ft | 444 kts | 349° |
| 2026-05-06 16:34 | 52.13350 | 10.99651 | 34788 ft | 446 kts | 349° |
| 2026-05-06 16:34 | 52.16394 | 10.98996 | 34203 ft | 449 kts | 349° |
| 2026-05-06 16:34 | 52.19510 | 10.98324 | 33651 ft | 453 kts | 349° |
| 2026-05-06 16:35 | 52.22649 | 10.97645 | 33021 ft | 459 kts | 349° |
| 2026-05-06 16:35 | 52.25796 | 10.96962 | 32239 ft | 465 kts | 350° |
| 2026-05-06 16:35 | 52.29017 | 10.96263 | 31518 ft | 467 kts | 350° |
| 2026-05-06 16:35 | 52.32219 | 10.95571 | 30994 ft | 463 kts | 351° |
| 2026-05-06 16:36 | 52.35374 | 10.94889 | 30441 ft | 459 kts | 351° |
| 2026-05-06 16:36 | 52.38481 | 10.94219 | 29938 ft | 453 kts | 351° |
| 2026-05-06 16:36 | 52.41594 | 10.93545 | 29452 ft | 447 kts | 351° |
| 2026-05-06 16:36 | 52.44651 | 10.92881 | 28975 ft | 442 kts | 351° |
| 2026-05-06 16:37 | 52.47650 | 10.92230 | 28505 ft | 437 kts | 351° |
| 2026-05-06 16:37 | 52.50663 | 10.91573 | 28032 ft | 432 kts | 351° |
| 2026-05-06 16:37 | 52.53592 | 10.90933 | 27573 ft | 427 kts | 351° |
| 2026-05-06 16:37 | 52.56529 | 10.90292 | 27105 ft | 423 kts | 351° |
| 2026-05-06 16:38 | 52.59412 | 10.89661 | 26643 ft | 419 kts | 351° |
| 2026-05-06 16:38 | 52.62291 | 10.89031 | 26178 ft | 415 kts | 351° |
| 2026-05-06 16:38 | 52.65099 | 10.88416 | 25720 ft | 411 kts | 351° |
| 2026-05-06 16:38 | 52.67942 | 10.87790 | 25257 ft | 407 kts | 351° |
| 2026-05-06 16:39 | 52.70722 | 10.87178 | 24803 ft | 404 kts | 351° |
| 2026-05-06 16:39 | 52.73466 | 10.86573 | 24354 ft | 401 kts | 351° |
| 2026-05-06 16:39 | 52.76213 | 10.85965 | 23906 ft | 397 kts | 351° |
| 2026-05-06 16:39 | 52.78945 | 10.85289 | 23448 ft | 393 kts | 345° |
| 2026-05-06 16:40 | 52.81377 | 10.83504 | 23052 ft | 380 kts | 320° |
| 2026-05-06 16:40 | 52.83206 | 10.80551 | 22612 ft | 363 kts | 309° |
| 2026-05-06 16:40 | 52.84842 | 10.77490 | 21755 ft | 361 kts | 308° |
| 2026-05-06 16:40 | 52.86498 | 10.74406 | 20909 ft | 361 kts | 309° |
| 2026-05-06 16:41 | 52.88185 | 10.71339 | 20396 ft | 358 kts | 310° |
| 2026-05-06 16:41 | 52.89858 | 10.68359 | 19974 ft | 354 kts | 310° |
| 2026-05-06 16:41 | 52.91530 | 10.65417 | 19513 ft | 352 kts | 310° |
| 2026-05-06 16:41 | 52.93207 | 10.62488 | 19037 ft | 349 kts | 310° |
| 2026-05-06 16:42 | 52.94884 | 10.59570 | 18568 ft | 347 kts | 310° |
| 2026-05-06 16:42 | 52.96529 | 10.56716 | 18122 ft | 345 kts | 311° |
| 2026-05-06 16:42 | 52.98183 | 10.53842 | 17670 ft | 342 kts | 311° |
| 2026-05-06 16:42 | 52.99793 | 10.51043 | 17235 ft | 340 kts | 311° |
| 2026-05-06 16:43 | 53.01423 | 10.48210 | 16781 ft | 338 kts | 311° |
| 2026-05-06 16:43 | 53.03037 | 10.45403 | 16342 ft | 336 kts | 311° |
| 2026-05-06 16:43 | 53.04646 | 10.42603 | 15907 ft | 333 kts | 311° |
| 2026-05-06 16:43 | 53.06224 | 10.39855 | 15476 ft | 331 kts | 311° |
| 2026-05-06 16:44 | 53.07806 | 10.37100 | 15035 ft | 328 kts | 311° |
| 2026-05-06 16:44 | 53.09375 | 10.34362 | 14590 ft | 326 kts | 311° |
| 2026-05-06 16:44 | 53.10920 | 10.31662 | 14108 ft | 324 kts | 310° |
| 2026-05-06 16:44 | 53.12474 | 10.28941 | 13680 ft | 322 kts | 310° |
| 2026-05-06 16:45 | 53.13996 | 10.26273 | 13241 ft | 320 kts | 311° |
| 2026-05-06 16:45 | 53.15537 | 10.23571 | 12780 ft | 319 kts | 311° |
| 2026-05-06 16:45 | 53.17059 | 10.20897 | 12342 ft | 318 kts | 311° |
| 2026-05-06 16:45 | 53.18557 | 10.18264 | 11926 ft | 316 kts | 312° |
| 2026-05-06 16:46 | 53.20081 | 10.15583 | 11477 ft | 316 kts | 312° |
| 2026-05-06 16:46 | 53.21583 | 10.12934 | 11068 ft | 313 kts | 313° |
| 2026-05-06 16:46 | 53.23064 | 10.10327 | 10632 ft | 311 kts | 313° |
| 2026-05-06 16:46 | 53.24541 | 10.07716 | 10383 ft | 303 kts | 314° |
| 2026-05-06 16:47 | 53.25969 | 10.05193 | 10175 ft | 294 kts | 314° |
| 2026-05-06 16:47 | 53.27351 | 10.02752 | 9888 ft | 290 kts | 313° |
| 2026-05-06 16:47 | 53.28727 | 10.00317 | 9531 ft | 289 kts | 313° |
| 2026-05-06 16:47 | 53.30101 | 9.97882 | 9103 ft | 288 kts | 314° |
| 2026-05-06 16:48 | 53.31477 | 9.95436 | 8663 ft | 287 kts | 314° |
| 2026-05-06 16:48 | 53.32848 | 9.93001 | 8306 ft | 285 kts | 316° |
| 2026-05-06 16:48 | 53.34188 | 9.90619 | 7944 ft | 283 kts | 316° |
| 2026-05-06 16:48 | 53.35522 | 9.88242 | 7689 ft | 276 kts | 316° |
| 2026-05-06 16:49 | 53.36826 | 9.85927 | 7502 ft | 268 kts | 316° |
| 2026-05-06 16:49 | 53.38074 | 9.83702 | 7346 ft | 259 kts | 316° |
| 2026-05-06 16:49 | 53.39276 | 9.81518 | 7172 ft | 251 kts | 310° |
| 2026-05-06 16:49 | 53.40063 | 9.78949 | 6982 ft | 248 kts | 285° |
| 2026-05-06 16:50 | 53.40165 | 9.76137 | 6757 ft | 246 kts | 262° |
| 2026-05-06 16:50 | 53.39605 | 9.73412 | 6345 ft | 250 kts | 237° |
| 2026-05-06 16:50 | 53.38535 | 9.71105 | 6146 ft | 252 kts | 228° |
| 2026-05-06 16:50 | 53.37376 | 9.68899 | 5954 ft | 253 kts | 227° |
| 2026-05-06 16:51 | 53.36223 | 9.66700 | 5813 ft | 253 kts | 228° |
| 2026-05-06 16:51 | 53.35070 | 9.64461 | 5661 ft | 253 kts | 229° |
| 2026-05-06 16:51 | 53.33921 | 9.62200 | 5507 ft | 253 kts | 229° |
| 2026-05-06 16:51 | 53.32801 | 9.59980 | 5354 ft | 253 kts | 229° |
| 2026-05-06 16:52 | 53.31666 | 9.57725 | 5204 ft | 253 kts | 229° |
| 2026-05-06 16:52 | 53.30597 | 9.55415 | 5048 ft | 252 kts | 242° |
| 2026-05-06 16:52 | 53.30140 | 9.52631 | 4888 ft | 249 kts | 274° |
| 2026-05-06 16:52 | 53.30499 | 9.49850 | 4727 ft | 242 kts | 302° |
| 2026-05-06 16:53 | 53.31505 | 9.47687 | 4608 ft | 234 kts | 324° |
| 2026-05-06 16:53 | 53.32764 | 9.46033 | 4498 ft | 230 kts | 335° |
| 2026-05-06 16:53 | 53.34261 | 9.45222 | 4390 ft | 221 kts | 1° |
| 2026-05-06 16:53 | 53.35712 | 9.45653 | 4285 ft | 211 kts | 27° |
| 2026-05-06 16:54 | 53.36911 | 9.46919 | 4176 ft | 199 kts | 42° |
| 2026-05-06 16:54 | 53.37895 | 9.48499 | 4063 ft | 191 kts | 46° |
| 2026-05-06 16:54 | 53.38806 | 9.50060 | 3986 ft | 189 kts | 47° |
| 2026-05-06 16:54 | 53.39712 | 9.51675 | 3986 ft | 189 kts | 48° |
| 2026-05-06 16:55 | 53.40595 | 9.53307 | 3982 ft | 190 kts | 49° |
| 2026-05-06 16:55 | 53.41471 | 9.54975 | 3987 ft | 190 kts | 50° |
| 2026-05-06 16:55 | 53.42327 | 9.56648 | 3983 ft | 190 kts | 50° |
| 2026-05-06 16:55 | 53.43170 | 9.58328 | 3980 ft | 190 kts | 51° |
| 2026-05-06 16:56 | 53.44012 | 9.60030 | 3975 ft | 190 kts | 51° |
| 2026-05-06 16:56 | 53.44847 | 9.61734 | 3977 ft | 190 kts | 51° |
| 2026-05-06 16:56 | 53.45689 | 9.63463 | 3980 ft | 190 kts | 51° |
| 2026-05-06 16:56 | 53.46527 | 9.65186 | 3980 ft | 190 kts | 51° |
| 2026-05-06 16:57 | 53.47355 | 9.66892 | 3978 ft | 190 kts | 52° |
| 2026-05-06 16:57 | 53.48169 | 9.68566 | 3968 ft | 176 kts | 52° |
| 2026-05-06 16:57 | 53.48897 | 9.70061 | 4034 ft | 162 kts | 51° |
| 2026-05-06 16:57 | 53.49603 | 9.71511 | 3826 ft | 159 kts | 51° |
| 2026-05-06 16:58 | 53.50298 | 9.72935 | 3621 ft | 158 kts | 51° |
| 2026-05-06 16:58 | 53.50996 | 9.74365 | 3418 ft | 157 kts | 51° |
| 2026-05-06 16:58 | 53.51683 | 9.75766 | 3217 ft | 156 kts | 51° |
| 2026-05-06 16:58 | 53.52373 | 9.77173 | 3014 ft | 155 kts | 51° |
| 2026-05-06 16:59 | 53.53058 | 9.78570 | 2808 ft | 154 kts | 51° |
| 2026-05-06 16:59 | 53.53743 | 9.79962 | 2602 ft | 153 kts | 51° |
| 2026-05-06 16:59 | 53.54405 | 9.81309 | 2380 ft | 148 kts | 51° |
| 2026-05-06 16:59 | 53.55056 | 9.82626 | 2140 ft | 144 kts | 51° |
| 2026-05-06 17:00 | 53.55669 | 9.83910 | 1929 ft | 139 kts | 51° |
| 2026-05-06 17:00 | 53.56285 | 9.85149 | 1721 ft | 138 kts | 51° |
| 2026-05-06 17:00 | 53.56898 | 9.86382 | 1523 ft | 137 kts | 51° |
| 2026-05-06 17:00 | 53.57511 | 9.87618 | 1378 ft | 137 kts | 51° |
| 2026-05-06 17:01 | 53.58115 | 9.88841 | 1226 ft | 137 kts | 51° |
| 2026-05-06 17:01 | 53.58710 | 9.90064 | 1070 ft | 136 kts | 51° |
| 2026-05-06 17:01 | 53.59319 | 9.91293 | 921 ft | 136 kts | 50° |
| 2026-05-06 17:01 | 53.59924 | 9.92509 | 724 ft | 136 kts | 50° |
| 2026-05-06 17:02 | 53.60529 | 9.93727 | 510 ft | 135 kts | 49° |
| 2026-05-06 17:02 | 53.61120 | 9.94930 | 336 ft | 134 kts | 50° |
| 2026-05-06 17:02 | 53.61713 | 9.96145 | 171 ft | 132 kts | 50° |
| 2026-05-06 17:02 | 53.62293 | 9.97322 | 40 ft | 126 kts | 52° |
| 2026-05-06 17:03 | 53.62762 | 9.98273 | 43 ft | 83 kts | 50° |
| 2026-05-06 17:03 | 53.63057 | 9.98871 | 44 ft | 58 kts | 50° |
| 2026-05-06 17:03 | 53.63267 | 9.99303 | 45 ft | 24 kts | 61° |
| 2026-05-06 17:03 | 53.63289 | 9.99512 | 46 ft | 12 kts | 95° |
| 2026-05-06 17:04 | 53.63280 | 9.99626 | 46 ft | 8 kts | 98° |
| 2026-05-06 17:04 | 53.63278 | 9.99731 | 47 ft | 8 kts | 83° |
| 2026-05-06 17:04 | 53.63306 | 9.99819 | 47 ft | 9 kts | 47° |
| 2026-05-06 17:04 | 53.63348 | 9.99901 | 47 ft | 9 kts | 49° |
| 2026-05-06 17:05 | 53.63376 | 9.99958 | 48 ft | 1 kts | 51° |
| 2026-05-06 17:05 | 53.63381 | 9.99968 | 48 ft | 1 kts | 51° |
| 2026-05-06 17:05 | 53.63397 | 10.00000 | 48 ft | 5 kts | 51° |
| 2026-05-06 17:05 | 53.63421 | 10.00058 | 49 ft | 6 kts | 63° |
| 2026-05-06 17:06 | 53.63424 | 10.00132 | 49 ft | 7 kts | 123° |
| 2026-05-06 17:06 | 53.63392 | 10.00206 | 49 ft | 8 kts | 137° |
| 2026-05-06 17:06 | 53.63325 | 10.00233 | 49 ft | 11 kts | 175° |
| 2026-05-06 17:06 | 53.63250 | 10.00243 | 48 ft | 11 kts | 176° |
| 2026-05-06 17:07 | 53.63178 | 10.00254 | 48 ft | 6 kts | 157° |
| 2026-05-06 17:07 | 53.63165 | 10.00304 | 48 ft | 5 kts | 88° |
| 2026-05-06 17:07 | 53.63168 | 10.00358 | 48 ft | 2 kts | 86° |
| 2026-05-06 17:07 | 53.63168 | 10.00359 | 48 ft | 0 kts | 86° |